sensor_id;sensor_type;location;lat;lon;timestamp;temperature;humidity
8850;DHT22;5638;50.860;4.698;2022-09-03T00:01:00;22.10;80.90
8850;DHT22;5638;50.860;4.698;2022-09-03T00:09:02;21.90;80.10
8850;DHT22;5638;50.860;4.698;2022-09-03T00:11:57;21.80;80.10
8850;DHT22;5638;50.860;4.698;2022-09-03T00:14:49;21.80;80.80
8850;DHT22;5638;50.860;4.698;2022-09-03T00:17:22;21.70;81.50
8850;DHT22;5638;50.860;4.698;2022-09-03T00:20:02;21.80;81.50
8850;DHT22;5638;50.860;4.698;2022-09-03T00:22:42;21.70;81.20
8850;DHT22;5638;50.860;4.698;2022-09-03T00:28:10;21.80;81.40
8850;DHT22;5638;50.860;4.698;2022-09-03T00:30:41;21.80;81.50
8850;DHT22;5638;50.860;4.698;2022-09-03T00:33:21;21.80;80.80
8850;DHT22;5638;50.860;4.698;2022-09-03T00:36:11;21.80;80.90
8850;DHT22;5638;50.860;4.698;2022-09-03T00:38:41;21.80;81.10
8850;DHT22;5638;50.860;4.698;2022-09-03T00:41:24;21.70;81.90
8850;DHT22;5638;50.860;4.698;2022-09-03T00:53:49;21.70;81.80
8850;DHT22;5638;50.860;4.698;2022-09-03T00:56:25;21.70;81.90
8850;DHT22;5638;50.860;4.698;2022-09-03T01:14:13;21.70;83.00
8850;DHT22;5638;50.860;4.698;2022-09-03T01:16:49;21.70;83.40
8850;DHT22;5638;50.860;4.698;2022-09-03T01:22:57;21.70;83.60
8850;DHT22;5638;50.860;4.698;2022-09-03T01:37:28;21.70;82.70
8850;DHT22;5638;50.860;4.698;2022-09-03T01:44:06;21.80;83.10
8850;DHT22;5638;50.860;4.698;2022-09-03T01:46:39;21.80;82.60
8850;DHT22;5638;50.860;4.698;2022-09-03T01:49:22;21.80;83.00
8850;DHT22;5638;50.860;4.698;2022-09-03T01:52:15;21.80;83.10
8850;DHT22;5638;50.860;4.698;2022-09-03T01:55:12;21.80;83.60
8850;DHT22;5638;50.860;4.698;2022-09-03T02:00:40;21.80;83.80
8850;DHT22;5638;50.860;4.698;2022-09-03T02:03:11;21.70;84.10
8850;DHT22;5638;50.860;4.698;2022-09-03T02:05:38;21.80;84.10
8850;DHT22;5638;50.860;4.698;2022-09-03T02:08:08;21.80;83.90
8850;DHT22;5638;50.860;4.698;2022-09-03T02:10:48;21.80;84.00
8850;DHT22;5638;50.860;4.698;2022-09-03T02:13:34;21.80;85.00
8850;DHT22;5638;50.860;4.698;2022-09-03T02:16:09;21.90;84.10
8850;DHT22;5638;50.860;4.698;2022-09-03T02:18:59;21.80;85.10
8850;DHT22;5638;50.860;4.698;2022-09-03T02:21:33;21.80;84.60
8850;DHT22;5638;50.860;4.698;2022-09-03T02:24:02;21.80;84.60
8850;DHT22;5638;50.860;4.698;2022-09-03T02:26:30;21.70;84.80
8850;DHT22;5638;50.860;4.698;2022-09-03T02:28:56;21.70;85.70
8850;DHT22;5638;50.860;4.698;2022-09-03T02:31:22;21.70;85.30
8850;DHT22;5638;50.860;4.698;2022-09-03T02:33:50;21.70;85.70
8850;DHT22;5638;50.860;4.698;2022-09-03T02:36:20;21.70;85.70
8850;DHT22;5638;50.860;4.698;2022-09-03T02:38:51;21.60;85.10
8850;DHT22;5638;50.860;4.698;2022-09-03T02:41:17;21.60;86.10
8850;DHT22;5638;50.860;4.698;2022-09-03T02:44:11;21.60;86.10
8850;DHT22;5638;50.860;4.698;2022-09-03T02:46:49;21.70;86.20
8850;DHT22;5638;50.860;4.698;2022-09-03T02:49:21;21.70;86.30
8850;DHT22;5638;50.860;4.698;2022-09-03T02:51:47;21.70;85.60
8850;DHT22;5638;50.860;4.698;2022-09-03T02:54:13;21.70;86.20
8850;DHT22;5638;50.860;4.698;2022-09-03T02:56:40;21.70;86.20
8850;DHT22;5638;50.860;4.698;2022-09-03T02:59:07;21.70;86.20
8850;DHT22;5638;50.860;4.698;2022-09-03T03:01:35;21.70;86.20
8850;DHT22;5638;50.860;4.698;2022-09-03T03:04:02;21.70;86.00
8850;DHT22;5638;50.860;4.698;2022-09-03T03:06:28;21.80;86.50
8850;DHT22;5638;50.860;4.698;2022-09-03T03:08:53;21.80;86.30
8850;DHT22;5638;50.860;4.698;2022-09-03T03:11:20;21.70;85.30
8850;DHT22;5638;50.860;4.698;2022-09-03T03:13:46;21.70;86.80
8850;DHT22;5638;50.860;4.698;2022-09-03T03:16:13;21.70;86.20
8850;DHT22;5638;50.860;4.698;2022-09-03T03:18:41;21.60;86.10
8850;DHT22;5638;50.860;4.698;2022-09-03T03:21:09;21.60;86.70
8850;DHT22;5638;50.860;4.698;2022-09-03T03:23:37;21.60;86.10
8850;DHT22;5638;50.860;4.698;2022-09-03T03:26:10;21.60;86.10
8850;DHT22;5638;50.860;4.698;2022-09-03T03:28:37;21.50;86.50
8850;DHT22;5638;50.860;4.698;2022-09-03T03:31:08;21.50;87.10
8850;DHT22;5638;50.860;4.698;2022-09-03T03:33:39;21.60;87.00
8850;DHT22;5638;50.860;4.698;2022-09-03T03:36:07;21.60;87.60
8850;DHT22;5638;50.860;4.698;2022-09-03T03:38:35;21.60;86.90
8850;DHT22;5638;50.860;4.698;2022-09-03T03:41:09;21.60;86.30
8850;DHT22;5638;50.860;4.698;2022-09-03T03:43:37;21.60;87.30
8850;DHT22;5638;50.860;4.698;2022-09-03T03:46:03;21.60;86.80
8850;DHT22;5638;50.860;4.698;2022-09-03T03:48:30;21.60;86.60
8850;DHT22;5638;50.860;4.698;2022-09-03T03:51:04;21.70;86.80
8850;DHT22;5638;50.860;4.698;2022-09-03T03:53:33;21.60;87.30
8850;DHT22;5638;50.860;4.698;2022-09-03T03:56:02;21.70;87.30
8850;DHT22;5638;50.860;4.698;2022-09-03T03:58:30;21.70;88.50
8850;DHT22;5638;50.860;4.698;2022-09-03T04:01:24;21.60;88.00
8850;DHT22;5638;50.860;4.698;2022-09-03T04:03:54;21.60;88.70
8850;DHT22;5638;50.860;4.698;2022-09-03T04:06:20;21.50;88.70
8850;DHT22;5638;50.860;4.698;2022-09-03T04:08:47;21.60;87.80
8850;DHT22;5638;50.860;4.698;2022-09-03T04:11:16;21.60;87.90
8850;DHT22;5638;50.860;4.698;2022-09-03T04:13:47;21.50;89.00
8850;DHT22;5638;50.860;4.698;2022-09-03T04:16:25;21.40;88.40
8850;DHT22;5638;50.860;4.698;2022-09-03T04:18:53;21.40;89.60
8850;DHT22;5638;50.860;4.698;2022-09-03T04:21:30;21.40;90.00
8850;DHT22;5638;50.860;4.698;2022-09-03T04:23:56;21.50;89.60
8850;DHT22;5638;50.860;4.698;2022-09-03T04:26:25;21.40;89.80
8850;DHT22;5638;50.860;4.698;2022-09-03T04:28:56;21.50;90.10
8850;DHT22;5638;50.860;4.698;2022-09-03T04:31:22;21.40;89.90
8850;DHT22;5638;50.860;4.698;2022-09-03T04:33:48;21.50;90.00
8850;DHT22;5638;50.860;4.698;2022-09-03T04:36:17;21.40;89.60
8850;DHT22;5638;50.860;4.698;2022-09-03T04:38:46;21.40;89.60
8850;DHT22;5638;50.860;4.698;2022-09-03T04:41:16;21.50;90.10
8850;DHT22;5638;50.860;4.698;2022-09-03T04:43:44;21.50;90.10
8850;DHT22;5638;50.860;4.698;2022-09-03T04:46:13;21.50;90.30
8850;DHT22;5638;50.860;4.698;2022-09-03T04:48:39;21.50;90.60
8850;DHT22;5638;50.860;4.698;2022-09-03T04:51:11;21.50;90.40
8850;DHT22;5638;50.860;4.698;2022-09-03T04:53:41;21.50;90.70
8850;DHT22;5638;50.860;4.698;2022-09-03T04:56:21;21.40;91.20
8850;DHT22;5638;50.860;4.698;2022-09-03T04:58:59;21.30;92.10
8850;DHT22;5638;50.860;4.698;2022-09-03T05:01:32;21.30;92.70
8850;DHT22;5638;50.860;4.698;2022-09-03T05:03:59;21.30;92.30
8850;DHT22;5638;50.860;4.698;2022-09-03T05:06:26;21.10;92.20
8850;DHT22;5638;50.860;4.698;2022-09-03T05:08:53;21.00;92.50
8850;DHT22;5638;50.860;4.698;2022-09-03T05:11:21;21.00;92.90
8850;DHT22;5638;50.860;4.698;2022-09-03T05:13:49;21.00;93.50
8850;DHT22;5638;50.860;4.698;2022-09-03T05:16:17;21.00;93.70
8850;DHT22;5638;50.860;4.698;2022-09-03T05:18:44;21.00;93.90
8850;DHT22;5638;50.860;4.698;2022-09-03T05:21:16;21.10;94.10
8850;DHT22;5638;50.860;4.698;2022-09-03T05:23:47;21.10;94.00
8850;DHT22;5638;50.860;4.698;2022-09-03T05:26:18;21.20;94.20
8850;DHT22;5638;50.860;4.698;2022-09-03T05:28:45;21.30;94.50
8850;DHT22;5638;50.860;4.698;2022-09-03T05:31:19;21.30;94.70
8850;DHT22;5638;50.860;4.698;2022-09-03T05:33:52;21.30;94.80
8850;DHT22;5638;50.860;4.698;2022-09-03T05:36:21;21.30;95.00
8850;DHT22;5638;50.860;4.698;2022-09-03T05:38:49;21.30;95.30
8850;DHT22;5638;50.860;4.698;2022-09-03T05:41:17;21.20;95.10
8850;DHT22;5638;50.860;4.698;2022-09-03T05:43:43;21.10;95.00
8850;DHT22;5638;50.860;4.698;2022-09-03T05:46:15;21.10;95.50
8850;DHT22;5638;50.860;4.698;2022-09-03T05:48:42;21.20;95.30
8850;DHT22;5638;50.860;4.698;2022-09-03T05:51:18;21.10;95.40
8850;DHT22;5638;50.860;4.698;2022-09-03T05:53:46;21.10;94.80
8850;DHT22;5638;50.860;4.698;2022-09-03T05:56:18;21.10;95.00
8850;DHT22;5638;50.860;4.698;2022-09-03T05:58:53;21.10;95.30
8850;DHT22;5638;50.860;4.698;2022-09-03T06:01:23;21.10;95.40
8850;DHT22;5638;50.860;4.698;2022-09-03T06:04:16;21.00;95.70
8850;DHT22;5638;50.860;4.698;2022-09-03T06:06:45;21.00;95.70
8850;DHT22;5638;50.860;4.698;2022-09-03T06:09:19;21.00;95.70
8850;DHT22;5638;50.860;4.698;2022-09-03T06:11:46;21.10;95.30
8850;DHT22;5638;50.860;4.698;2022-09-03T06:14:14;21.10;95.30
8850;DHT22;5638;50.860;4.698;2022-09-03T06:16:45;21.20;95.10
8850;DHT22;5638;50.860;4.698;2022-09-03T06:19:17;21.30;95.20
8850;DHT22;5638;50.860;4.698;2022-09-03T06:21:44;21.30;95.40
8850;DHT22;5638;50.860;4.698;2022-09-03T06:24:16;21.30;95.60
8850;DHT22;5638;50.860;4.698;2022-09-03T06:26:51;21.40;95.50
8850;DHT22;5638;50.860;4.698;2022-09-03T06:29:17;21.40;95.70
8850;DHT22;5638;50.860;4.698;2022-09-03T06:31:44;21.40;95.40
8850;DHT22;5638;50.860;4.698;2022-09-03T06:34:13;21.40;95.60
8850;DHT22;5638;50.860;4.698;2022-09-03T06:36:39;21.50;95.90
8850;DHT22;5638;50.860;4.698;2022-09-03T06:39:05;21.60;95.30
8850;DHT22;5638;50.860;4.698;2022-09-03T06:41:31;21.60;95.20
8850;DHT22;5638;50.860;4.698;2022-09-03T06:44:07;21.60;95.50
8850;DHT22;5638;50.860;4.698;2022-09-03T06:46:37;21.60;95.70
8850;DHT22;5638;50.860;4.698;2022-09-03T06:49:06;21.60;95.60
8850;DHT22;5638;50.860;4.698;2022-09-03T06:51:33;21.70;95.70
8850;DHT22;5638;50.860;4.698;2022-09-03T06:54:07;21.80;95.60
8850;DHT22;5638;50.860;4.698;2022-09-03T06:56:36;21.90;95.40
8850;DHT22;5638;50.860;4.698;2022-09-03T06:59:08;22.00;95.60
8850;DHT22;5638;50.860;4.698;2022-09-03T07:01:36;22.00;95.60
8850;DHT22;5638;50.860;4.698;2022-09-03T07:04:05;22.10;95.70
8850;DHT22;5638;50.860;4.698;2022-09-03T07:06:35;22.10;95.50
8850;DHT22;5638;50.860;4.698;2022-09-03T07:09:07;22.10;95.70
8850;DHT22;5638;50.860;4.698;2022-09-03T07:11:34;22.20;95.70
8850;DHT22;5638;50.860;4.698;2022-09-03T07:14:03;22.30;95.50
8850;DHT22;5638;50.860;4.698;2022-09-03T07:16:32;22.30;95.50
8850;DHT22;5638;50.860;4.698;2022-09-03T07:19:00;22.40;95.70
8850;DHT22;5638;50.860;4.698;2022-09-03T07:21:29;22.40;95.50
8850;DHT22;5638;50.860;4.698;2022-09-03T07:23:56;22.40;95.60
8850;DHT22;5638;50.860;4.698;2022-09-03T07:26:26;22.60;95.20
8850;DHT22;5638;50.860;4.698;2022-09-03T07:28:57;22.50;95.20
8850;DHT22;5638;50.860;4.698;2022-09-03T07:31:28;22.60;95.10
8850;DHT22;5638;50.860;4.698;2022-09-03T07:33:57;22.60;95.20
8850;DHT22;5638;50.860;4.698;2022-09-03T07:36:26;22.70;95.30
8850;DHT22;5638;50.860;4.698;2022-09-03T07:38:55;22.80;95.30
8850;DHT22;5638;50.860;4.698;2022-09-03T07:41:24;22.90;95.10
8850;DHT22;5638;50.860;4.698;2022-09-03T07:43:52;23.00;95.10
8850;DHT22;5638;50.860;4.698;2022-09-03T07:46:22;22.90;94.90
8850;DHT22;5638;50.860;4.698;2022-09-03T07:48:57;23.00;95.00
8850;DHT22;5638;50.860;4.698;2022-09-03T07:51:26;23.10;94.80
8850;DHT22;5638;50.860;4.698;2022-09-03T07:53:56;23.10;95.00
8850;DHT22;5638;50.860;4.698;2022-09-03T07:56:25;23.10;95.10
8850;DHT22;5638;50.860;4.698;2022-09-03T07:58:52;23.20;94.90
8850;DHT22;5638;50.860;4.698;2022-09-03T08:01:22;23.20;94.20
8850;DHT22;5638;50.860;4.698;2022-09-03T08:03:51;23.20;94.20
8850;DHT22;5638;50.860;4.698;2022-09-03T08:06:20;23.10;94.30
8850;DHT22;5638;50.860;4.698;2022-09-03T08:08:47;23.00;94.80
8850;DHT22;5638;50.860;4.698;2022-09-03T08:11:19;23.00;94.60
8850;DHT22;5638;50.860;4.698;2022-09-03T08:13:58;22.90;94.80
8850;DHT22;5638;50.860;4.698;2022-09-03T08:16:33;23.00;95.00
8850;DHT22;5638;50.860;4.698;2022-09-03T08:19:04;22.90;95.10
8850;DHT22;5638;50.860;4.698;2022-09-03T08:21:30;22.80;95.10
8850;DHT22;5638;50.860;4.698;2022-09-03T08:23:57;22.80;95.30
8850;DHT22;5638;50.860;4.698;2022-09-03T08:26:31;22.60;95.80
8850;DHT22;5638;50.860;4.698;2022-09-03T08:28:59;22.70;96.00
8850;DHT22;5638;50.860;4.698;2022-09-03T08:31:26;22.90;95.90
8850;DHT22;5638;50.860;4.698;2022-09-03T08:33:55;23.10;96.00
8850;DHT22;5638;50.860;4.698;2022-09-03T08:36:27;23.30;95.70
8850;DHT22;5638;50.860;4.698;2022-09-03T08:39:01;23.50;95.70
8850;DHT22;5638;50.860;4.698;2022-09-03T08:41:33;23.70;95.50
8850;DHT22;5638;50.860;4.698;2022-09-03T08:44:40;23.90;95.50
8850;DHT22;5638;50.860;4.698;2022-09-03T08:47:16;24.00;95.80
8850;DHT22;5638;50.860;4.698;2022-09-03T08:52:39;24.10;96.50
8850;DHT22;5638;50.860;4.698;2022-09-03T08:55:30;24.30;96.60
8850;DHT22;5638;50.860;4.698;2022-09-03T08:58:13;24.40;96.50
8850;DHT22;5638;50.860;4.698;2022-09-03T09:06:40;24.20;96.80
8850;DHT22;5638;50.860;4.698;2022-09-03T09:10:09;24.10;97.10
8850;DHT22;5638;50.860;4.698;2022-09-03T09:21:18;24.90;96.70
8850;DHT22;5638;50.860;4.698;2022-09-03T09:23:54;24.90;96.90
8850;DHT22;5638;50.860;4.698;2022-09-03T09:26:27;24.80;96.90
8850;DHT22;5638;50.860;4.698;2022-09-03T09:28:59;24.70;97.20
8850;DHT22;5638;50.860;4.698;2022-09-03T09:31:30;24.50;97.70
8850;DHT22;5638;50.860;4.698;2022-09-03T09:34:15;24.30;98.00
8850;DHT22;5638;50.860;4.698;2022-09-03T09:36:52;24.40;98.20
8850;DHT22;5638;50.860;4.698;2022-09-03T09:39:20;24.50;98.60
8850;DHT22;5638;50.860;4.698;2022-09-03T09:44:38;25.10;98.50
8850;DHT22;5638;50.860;4.698;2022-09-03T09:47:26;25.40;98.50
8850;DHT22;5638;50.860;4.698;2022-09-03T09:49:58;25.80;97.30
8850;DHT22;5638;50.860;4.698;2022-09-03T09:52:26;25.80;97.50
8850;DHT22;5638;50.860;4.698;2022-09-03T09:55:10;26.10;97.50
8850;DHT22;5638;50.860;4.698;2022-09-03T09:57:39;26.40;96.70
8850;DHT22;5638;50.860;4.698;2022-09-03T10:00:07;26.50;96.30
8850;DHT22;5638;50.860;4.698;2022-09-03T10:02:37;26.40;96.40
8850;DHT22;5638;50.860;4.698;2022-09-03T10:05:23;26.50;96.10
8850;DHT22;5638;50.860;4.698;2022-09-03T10:08:04;26.20;96.50
8850;DHT22;5638;50.860;4.698;2022-09-03T10:10:45;26.10;96.70
8850;DHT22;5638;50.860;4.698;2022-09-03T10:13:23;26.00;96.90
8850;DHT22;5638;50.860;4.698;2022-09-03T10:16:04;25.90;96.90
8850;DHT22;5638;50.860;4.698;2022-09-03T10:19:01;25.80;97.30
8850;DHT22;5638;50.860;4.698;2022-09-03T10:26:43;25.90;97.60
8850;DHT22;5638;50.860;4.698;2022-09-03T10:29:15;25.90;97.40
8850;DHT22;5638;50.860;4.698;2022-09-03T10:38:26;26.20;96.90
8850;DHT22;5638;50.860;4.698;2022-09-03T10:46:28;26.90;95.90
8850;DHT22;5638;50.860;4.698;2022-09-03T10:49:54;26.80;95.50
8850;DHT22;5638;50.860;4.698;2022-09-03T11:06:56;26.30;96.90
8850;DHT22;5638;50.860;4.698;2022-09-03T11:10:20;26.30;96.90
8850;DHT22;5638;50.860;4.698;2022-09-03T11:13:03;26.30;96.90
8850;DHT22;5638;50.860;4.698;2022-09-03T11:18:36;26.60;96.20
8850;DHT22;5638;50.860;4.698;2022-09-03T11:21:11;26.80;96.30
8850;DHT22;5638;50.860;4.698;2022-09-03T11:23:43;27.00;95.80
8850;DHT22;5638;50.860;4.698;2022-09-03T11:26:14;27.30;95.20
8850;DHT22;5638;50.860;4.698;2022-09-03T11:32:26;27.30;94.90
8850;DHT22;5638;50.860;4.698;2022-09-03T11:40:37;28.00;94.10
8850;DHT22;5638;50.860;4.698;2022-09-03T11:43:25;28.30;93.60
8850;DHT22;5638;50.860;4.698;2022-09-03T11:48:40;28.50;93.30
8850;DHT22;5638;50.860;4.698;2022-09-03T11:51:28;29.00;93.10
8850;DHT22;5638;50.860;4.698;2022-09-03T11:56:24;28.90;91.80
8850;DHT22;5638;50.860;4.698;2022-09-03T12:01:55;29.30;91.00
8850;DHT22;5638;50.860;4.698;2022-09-03T12:16:29;30.50;87.70
8850;DHT22;5638;50.860;4.698;2022-09-03T12:19:17;30.40;84.80
8850;DHT22;5638;50.860;4.698;2022-09-03T12:21:53;30.20;87.40
8850;DHT22;5638;50.860;4.698;2022-09-03T12:24:19;29.80;88.70
8850;DHT22;5638;50.860;4.698;2022-09-03T12:26:48;29.20;89.10
8850;DHT22;5638;50.860;4.698;2022-09-03T12:29:25;29.00;90.30
8850;DHT22;5638;50.860;4.698;2022-09-03T12:31:54;28.80;90.70
8850;DHT22;5638;50.860;4.698;2022-09-03T12:34:22;28.70;91.30
8850;DHT22;5638;50.860;4.698;2022-09-03T12:36:51;28.60;91.80
8850;DHT22;5638;50.860;4.698;2022-09-03T12:47:23;29.30;91.20
8850;DHT22;5638;50.860;4.698;2022-09-03T12:49:51;29.20;90.80
8850;DHT22;5638;50.860;4.698;2022-09-03T12:52:34;29.10;90.60
8850;DHT22;5638;50.860;4.698;2022-09-03T13:00:37;28.70;91.30
8850;DHT22;5638;50.860;4.698;2022-09-03T13:03:16;28.50;91.80
8850;DHT22;5638;50.860;4.698;2022-09-03T13:05:54;28.50;92.40
8850;DHT22;5638;50.860;4.698;2022-09-03T13:08:30;28.30;92.80
8850;DHT22;5638;50.860;4.698;2022-09-03T13:11:00;28.20;92.70
8850;DHT22;5638;50.860;4.698;2022-09-03T13:13:35;28.30;92.70
8850;DHT22;5638;50.860;4.698;2022-09-03T13:30:15;28.50;92.20
8850;DHT22;5638;50.860;4.698;2022-09-03T13:35:48;28.50;92.30
8850;DHT22;5638;50.860;4.698;2022-09-03T13:39:03;28.70;92.50
8850;DHT22;5638;50.860;4.698;2022-09-03T13:42:34;28.80;92.10
8850;DHT22;5638;50.860;4.698;2022-09-03T13:48:14;28.80;92.00
8850;DHT22;5638;50.860;4.698;2022-09-03T13:51:51;28.90;91.70
8850;DHT22;5638;50.860;4.698;2022-09-03T13:54:30;28.70;91.60
8850;DHT22;5638;50.860;4.698;2022-09-03T13:57:04;28.70;91.30
8850;DHT22;5638;50.860;4.698;2022-09-03T13:59:59;28.60;91.80
8850;DHT22;5638;50.860;4.698;2022-09-03T14:02:45;28.60;91.70
8850;DHT22;5638;50.860;4.698;2022-09-03T14:12:03;28.50;91.60
8850;DHT22;5638;50.860;4.698;2022-09-03T14:21:07;28.60;92.00
8850;DHT22;5638;50.860;4.698;2022-09-03T14:24:57;29.00;91.60
8850;DHT22;5638;50.860;4.698;2022-09-03T14:27:02;29.50;91.20
8850;DHT22;5638;50.860;4.698;2022-09-03T14:29:34;29.70;90.80
8850;DHT22;5638;50.860;4.698;2022-09-03T14:41:09;30.40;88.30
8850;DHT22;5638;50.860;4.698;2022-09-03T14:58:33;30.00;87.00
8850;DHT22;5638;50.860;4.698;2022-09-03T15:04:17;30.00;87.50
8850;DHT22;5638;50.860;4.698;2022-09-03T15:07:33;29.70;88.80
8850;DHT22;5638;50.860;4.698;2022-09-03T15:13:17;29.20;90.10
8850;DHT22;5638;50.860;4.698;2022-09-03T15:24:40;29.40;91.00
8850;DHT22;5638;50.860;4.698;2022-09-03T15:30:22;29.70;90.20
8850;DHT22;5638;50.860;4.698;2022-09-03T15:33:12;29.90;89.60
8850;DHT22;5638;50.860;4.698;2022-09-03T15:41:45;30.00;89.60
8850;DHT22;5638;50.860;4.698;2022-09-03T15:44:14;29.90;88.90
8850;DHT22;5638;50.860;4.698;2022-09-03T15:49:42;29.50;89.60
8850;DHT22;5638;50.860;4.698;2022-09-03T15:52:31;29.20;90.00
8850;DHT22;5638;50.860;4.698;2022-09-03T15:55:35;29.00;89.60
8850;DHT22;5638;50.860;4.698;2022-09-03T15:58:30;28.80;90.40
8850;DHT22;5638;50.860;4.698;2022-09-03T16:01:25;28.60;90.50
8850;DHT22;5638;50.860;4.698;2022-09-03T16:07:08;28.00;91.20
8850;DHT22;5638;50.860;4.698;2022-09-03T16:13:07;27.80;91.90
8850;DHT22;5638;50.860;4.698;2022-09-03T16:15:48;27.70;92.30
8850;DHT22;5638;50.860;4.698;2022-09-03T16:18:32;27.70;92.50
8850;DHT22;5638;50.860;4.698;2022-09-03T16:24:32;27.50;94.10
8850;DHT22;5638;50.860;4.698;2022-09-03T16:30:34;27.20;94.80
8850;DHT22;5638;50.860;4.698;2022-09-03T16:45:10;27.20;96.80
8850;DHT22;5638;50.860;4.698;2022-09-03T17:00:00;27.00;97.90
8850;DHT22;5638;50.860;4.698;2022-09-03T17:09:02;26.70;99.00
8850;DHT22;5638;50.860;4.698;2022-09-03T17:15:19;26.60;99.30
8850;DHT22;5638;50.860;4.698;2022-09-03T17:18:12;26.60;99.30
8850;DHT22;5638;50.860;4.698;2022-09-03T17:27:17;26.40;99.00
8850;DHT22;5638;50.860;4.698;2022-09-03T17:30:02;26.30;99.70
8850;DHT22;5638;50.860;4.698;2022-09-03T17:49:47;25.70;99.90
8850;DHT22;5638;50.860;4.698;2022-09-03T17:52:47;25.80;99.90
8850;DHT22;5638;50.860;4.698;2022-09-03T17:58:21;26.10;99.90
8850;DHT22;5638;50.860;4.698;2022-09-03T18:06:32;25.80;99.90
8850;DHT22;5638;50.860;4.698;2022-09-03T18:09:25;25.60;99.90
8850;DHT22;5638;50.860;4.698;2022-09-03T18:12:36;25.50;99.90
8850;DHT22;5638;50.860;4.698;2022-09-03T18:15:19;25.30;99.90
8850;DHT22;5638;50.860;4.698;2022-09-03T18:17:57;25.20;99.90
8850;DHT22;5638;50.860;4.698;2022-09-03T18:20:50;25.10;99.90
8850;DHT22;5638;50.860;4.698;2022-09-03T18:23:57;25.10;99.90
8850;DHT22;5638;50.860;4.698;2022-09-03T18:27:00;25.20;99.90
8850;DHT22;5638;50.860;4.698;2022-09-03T18:30:06;25.30;99.90
8850;DHT22;5638;50.860;4.698;2022-09-03T18:32:53;25.30;99.90
8850;DHT22;5638;50.860;4.698;2022-09-03T18:35:38;25.20;99.90
8850;DHT22;5638;50.860;4.698;2022-09-03T18:38:28;25.30;99.90
8850;DHT22;5638;50.860;4.698;2022-09-03T18:45:17;25.20;99.90
8850;DHT22;5638;50.860;4.698;2022-09-03T18:52:43;25.00;99.90
8850;DHT22;5638;50.860;4.698;2022-09-03T18:59:10;24.90;99.90
8850;DHT22;5638;50.860;4.698;2022-09-03T19:01:58;24.80;99.90
8850;DHT22;5638;50.860;4.698;2022-09-03T19:08:18;24.80;99.90
8850;DHT22;5638;50.860;4.698;2022-09-03T19:14:46;24.50;99.90
8850;DHT22;5638;50.860;4.698;2022-09-03T19:24:00;24.10;99.90
8850;DHT22;5638;50.860;4.698;2022-09-03T19:27:14;24.10;99.90
8850;DHT22;5638;50.860;4.698;2022-09-03T19:30:31;24.10;99.90
8850;DHT22;5638;50.860;4.698;2022-09-03T19:33:37;24.10;99.90
8850;DHT22;5638;50.860;4.698;2022-09-03T19:56:05;23.90;99.90
8850;DHT22;5638;50.860;4.698;2022-09-03T19:59:04;23.90;99.90
8850;DHT22;5638;50.860;4.698;2022-09-03T20:01:52;24.00;99.90
8850;DHT22;5638;50.860;4.698;2022-09-03T20:05:00;23.80;99.90
8850;DHT22;5638;50.860;4.698;2022-09-03T20:07:46;23.70;99.90
8850;DHT22;5638;50.860;4.698;2022-09-03T20:10:35;23.60;99.90
8850;DHT22;5638;50.860;4.698;2022-09-03T20:13:09;23.60;99.90
8850;DHT22;5638;50.860;4.698;2022-09-03T20:28:24;23.40;99.90
8850;DHT22;5638;50.860;4.698;2022-09-03T20:31:07;23.30;99.90
8850;DHT22;5638;50.860;4.698;2022-09-03T20:36:32;23.40;99.90
8850;DHT22;5638;50.860;4.698;2022-09-03T20:51:13;23.40;99.90
8850;DHT22;5638;50.860;4.698;2022-09-03T20:59:38;23.30;99.90
8850;DHT22;5638;50.860;4.698;2022-09-03T21:02:34;23.20;99.90
8850;DHT22;5638;50.860;4.698;2022-09-03T21:08:19;23.30;99.90
8850;DHT22;5638;50.860;4.698;2022-09-03T21:11:10;23.30;99.90
8850;DHT22;5638;50.860;4.698;2022-09-03T21:19:40;23.00;99.90
8850;DHT22;5638;50.860;4.698;2022-09-03T21:25:04;23.10;99.90
8850;DHT22;5638;50.860;4.698;2022-09-03T21:27:46;23.10;99.90
8850;DHT22;5638;50.860;4.698;2022-09-03T21:30:17;23.10;99.90
8850;DHT22;5638;50.860;4.698;2022-09-03T21:35:36;23.10;99.90
8850;DHT22;5638;50.860;4.698;2022-09-03T21:38:10;23.10;99.90
8850;DHT22;5638;50.860;4.698;2022-09-03T21:40:46;23.00;99.90
8850;DHT22;5638;50.860;4.698;2022-09-03T21:43:25;22.90;99.90
8850;DHT22;5638;50.860;4.698;2022-09-03T21:46:22;22.90;99.90
8850;DHT22;5638;50.860;4.698;2022-09-03T21:48:59;22.90;99.90
8850;DHT22;5638;50.860;4.698;2022-09-03T21:51:37;22.90;99.90
8850;DHT22;5638;50.860;4.698;2022-09-03T21:54:18;22.80;99.90
8850;DHT22;5638;50.860;4.698;2022-09-03T21:57:11;22.80;99.90
8850;DHT22;5638;50.860;4.698;2022-09-03T22:02:30;22.70;99.90
8850;DHT22;5638;50.860;4.698;2022-09-03T22:04:58;22.60;99.90
8850;DHT22;5638;50.860;4.698;2022-09-03T22:10:14;22.60;99.90
8850;DHT22;5638;50.860;4.698;2022-09-03T22:12:58;22.60;99.90
8850;DHT22;5638;50.860;4.698;2022-09-03T22:15:35;22.60;99.90
8850;DHT22;5638;50.860;4.698;2022-09-03T22:18:12;22.50;99.90
8850;DHT22;5638;50.860;4.698;2022-09-03T22:32:26;22.20;99.90
8850;DHT22;5638;50.860;4.698;2022-09-03T22:38:24;22.20;99.90
8850;DHT22;5638;50.860;4.698;2022-09-03T22:49:51;22.20;99.90
8850;DHT22;5638;50.860;4.698;2022-09-03T22:52:48;22.20;99.90
8850;DHT22;5638;50.860;4.698;2022-09-03T22:55:23;22.30;99.90
8850;DHT22;5638;50.860;4.698;2022-09-03T22:58:06;22.20;99.90
8850;DHT22;5638;50.860;4.698;2022-09-03T23:00:44;22.10;99.90
8850;DHT22;5638;50.860;4.698;2022-09-03T23:03:24;22.10;99.90
8850;DHT22;5638;50.860;4.698;2022-09-03T23:06:03;22.10;99.90
8850;DHT22;5638;50.860;4.698;2022-09-03T23:08:40;22.00;99.90
8850;DHT22;5638;50.860;4.698;2022-09-03T23:14:05;21.80;99.90
8850;DHT22;5638;50.860;4.698;2022-09-03T23:19:45;21.70;99.90
8850;DHT22;5638;50.860;4.698;2022-09-03T23:22:35;21.60;99.90
8850;DHT22;5638;50.860;4.698;2022-09-03T23:25:15;21.60;99.90
8850;DHT22;5638;50.860;4.698;2022-09-03T23:27:58;21.60;99.90
8850;DHT22;5638;50.860;4.698;2022-09-03T23:30:27;21.50;99.90
8850;DHT22;5638;50.860;4.698;2022-09-03T23:32:58;21.60;99.90
8850;DHT22;5638;50.860;4.698;2022-09-03T23:35:28;21.60;99.90
8850;DHT22;5638;50.860;4.698;2022-09-03T23:41:05;21.60;99.90
8850;DHT22;5638;50.860;4.698;2022-09-03T23:43:43;21.50;99.90
8850;DHT22;5638;50.860;4.698;2022-09-03T23:46:53;21.50;99.90
8850;DHT22;5638;50.860;4.698;2022-09-03T23:55:28;21.50;99.90
8850;DHT22;5638;50.860;4.698;2022-09-03T23:58:16;21.50;99.90
